Time;durP1;ratioP1;P1;durP2;ratioP2;P2;SDS_P1;SDS_P2;PMS_P1;PMS_P2;Temp;Humidity;BMP_temperature;BMP_pressure;BME280_temperature;BME280_humidity;BME280_pressure;Samples;Min_cycle;Max_cycle;Signal;HPM_P1;HPM_P2
2021/05/25 12:27:11;;;;;;;75.43;72.10;;;;;;;;;;5090730;28;20643;-69
2021/05/25 12:29:37;;;;;;;71.22;68.20;;;;;;;;;;5090822;28;20172;-70
2021/05/25 12:32:09;;;;;;;75.88;72.60;;;;;;;;;;5090772;28;20168;-69
2021/05/25 12:34:35;;;;;;;74.45;71.22;;;;;;;;;;5090785;28;20168;-71
2021/05/25 12:37:01;;;;;;;72.72;69.63;;;;;;;;;;5090671;28;20172;-70
2021/05/25 12:39:34;;;;;;;76.80;73.50;;;;;;;;;;5090531;28;20164;-70
2021/05/25 12:42:00;;;;;;;526.75;496.60;;;;;;;;;;5090559;28;20164;-71
2021/05/25 12:44:30;;;;;;;286.58;272.40;;;;;;;;;;5090487;28;20164;-69
2021/05/25 12:47:04;;;;;;;191.93;182.90;;;;;;;;;;5089014;28;20227;-69
2021/05/25 12:49:35;;;;;;;38.60;37.17;;;;;;;;;;5090441;28;20563;-69
2021/05/25 12:52:20;;;;;;;30.88;29.77;;;;;;;;;;5090298;28;20184;-70
2021/05/25 12:54:59;;;;;;;30.33;29.33;;;;;;;;;;5090377;28;20210;-70
2021/05/25 12:57:41;;;;;;;31.25;30.17;;;;;;;;;;5090322;28;20168;-70
2021/05/25 13:00:08;;;;;;;31.35;30.25;;;;;;;;;;5090241;28;20190;-70
2021/05/25 13:02:41;;;;;;;30.67;29.67;;;;;;;;;;5090155;28;20175;-70
2021/05/25 13:05:08;;;;;;;31.65;30.55;;;;;;;;;;5090120;28;20219;-69
2021/05/25 13:07:47;;;;;;;27.65;26.75;;;;;;;;;;5088900;28;20172;-70
2021/05/25 13:10:23;;;;;;;25.52;24.73;;;;;;;;;;5090147;28;20175;-69
2021/05/25 13:12:49;;;;;;;25.48;24.67;;;;;;;;;;5088830;28;20167;-70
2021/05/25 13:15:15;;;;;;;25.42;24.63;;;;;;;;;;5090020;28;20243;-69
2021/05/25 13:17:55;;;;;;;25.38;24.58;;;;;;;;;;5089998;28;20175;-69
2021/05/25 13:20:24;;;;;;;28.65;27.65;;;;;;;;;;5089950;28;20164;-70
2021/05/25 13:22:50;;;;;;;30.85;29.75;;;;;;;;;;5089805;28;20255;-70
2021/05/25 13:25:17;;;;;;;31.40;30.23;;;;;;;;;;5089609;28;20255;-70
2021/05/25 13:27:52;;;;;;;33.25;32.05;;;;;;;;;;5089908;28;20699;-71
2021/05/25 13:30:30;;;;;;;36.45;35.15;;;;;;;;;;5089823;28;20250;-70
2021/05/25 13:32:57;;;;;;;44.03;42.22;;;;;;;;;;5089687;28;20168;-71
2021/05/25 13:35:23;;;;;;;49.17;47.22;;;;;;;;;;5089609;28;20171;-71
2021/05/25 13:37:49;;;;;;;46.25;44.42;;;;;;;;;;5080161;28;20179;-71
2021/05/25 13:40:15;;;;;;;43.85;42.15;;;;;;;;;;5076026;28;20169;-70
2021/05/25 13:42:41;;;;;;;43.67;41.97;;;;;;;;;;5076016;28;20222;-70
2021/05/25 13:45:08;;;;;;;47.75;45.85;;;;;;;;;;5075806;28;20203;-70
2021/05/25 13:47:34;;;;;;;48.13;46.22;;;;;;;;;;5075881;28;20175;-71
2021/05/25 13:50:00;;;;;;;47.83;45.92;;;;;;;;;;5075766;28;20171;-70
2021/05/25 13:52:26;;;;;;;54.90;52.60;;;;;;;;;;5075776;28;20642;-71
2021/05/25 13:54:53;;;;;;;48.58;46.67;;;;;;;;;;5074470;28;20183;-69
2021/05/25 13:57:22;;;;;;;53.05;50.88;;;;;;;;;;5075760;28;20480;-68
2021/05/25 13:59:54;;;;;;;55.58;53.30;;;;;;;;;;5074480;28;20240;-68
2021/05/25 14:02:20;;;;;;;55.30;53.03;;;;;;;;;;5075646;28;20168;-68
2021/05/25 14:04:46;;;;;;;61.67;59.08;;;;;;;;;;5075400;28;20172;-69
2021/05/25 14:07:14;;;;;;;57.78;55.08;;;;;;;;;;5074568;28;20172;-67
2021/05/25 14:09:40;;;;;;;57.83;55.40;;;;;;;;;;5075479;28;20183;-66
2021/05/25 14:12:07;;;;;;;58.88;56.45;;;;;;;;;;5075439;28;20161;-66
2021/05/25 14:14:33;;;;;;;59.47;57.00;;;;;;;;;;5074129;28;20164;-66
2021/05/25 14:16:59;;;;;;;53.75;51.45;;;;;;;;;;5075368;28;20215;-66
2021/05/25 14:19:25;;;;;;;57.63;55.22;;;;;;;;;;5075244;28;20550;-67
2021/05/25 14:21:51;;;;;;;63.78;61.03;;;;;;;;;;5075027;28;20195;-65
2021/05/25 14:24:16;;;;;;;48.83;46.88;;;;;;;;;;5073788;28;20172;-65
2021/05/25 14:26:43;;;;;;;56.90;54.00;;;;;;;;;;5074968;28;20226;-66
2021/05/25 14:29:09;;;;;;;48.90;46.92;;;;;;;;;;5074634;28;20497;-66
2021/05/25 14:31:36;;;;;;;47.58;45.67;;;;;;;;;;5075072;28;20543;-66
2021/05/25 14:34:02;;;;;;;41.50;39.90;;;;;;;;;;5073719;28;20581;-67
2021/05/25 14:36:28;;;;;;;41.65;39.97;;;;;;;;;;5075001;28;20268;-67
2021/05/25 14:38:54;;;;;;;39.53;37.63;;;;;;;;;;5075006;28;20199;-66
2021/05/25 14:41:21;;;;;;;39.42;37.67;;;;;;;;;;5074941;28;20696;-67
2021/05/25 14:43:47;;;;;;;40.05;38.55;;;;;;;;;;5074841;28;20629;-67
2021/05/25 14:46:13;;;;;;;42.05;40.45;;;;;;;;;;5073434;28;20230;-67
2021/05/25 14:48:41;;;;;;;42.28;40.67;;;;;;;;;;5073722;28;20173;-67
2021/05/25 14:51:07;;;;;;;43.08;41.38;;;;;;;;;;5074688;28;20168;-67
2021/05/25 14:53:52;;;;;;;42.03;40.42;;;;;;;;;;5073348;28;20169;-66
2021/05/25 14:56:22;;;;;;;42.55;40.95;;;;;;;;;;5074670;28;20160;-66
2021/05/25 14:58:51;;;;;;;43.05;41.33;;;;;;;;;;5074857;28;20257;-66
2021/05/25 15:01:20;;;;;;;48.33;46.38;;;;;;;;;;5074701;28;20165;-66
2021/05/25 15:04:09;;;;;;;50.15;47.20;;;;;;;;;;5074810;28;20171;-66
2021/05/25 15:06:35;;;;;;;43.45;41.75;;;;;;;;;;5074606;28;20200;-66
2021/05/25 15:09:05;;;;;;;42.22;40.53;;;;;;;;;;5074645;28;20536;-66
2021/05/25 15:11:31;;;;;;;39.00;37.50;;;;;;;;;;5074726;28;20160;-66
2021/05/25 15:13:57;;;;;;;38.22;36.83;;;;;;;;;;5074580;28;20172;-66
2021/05/25 15:16:23;;;;;;;40.42;38.83;;;;;;;;;;5074526;28;20168;-66
2021/05/25 15:18:49;;;;;;;42.70;41.08;;;;;;;;;;5074513;28;20524;-66
2021/05/25 15:21:18;;;;;;;43.72;42.05;;;;;;;;;;5074517;28;20184;-66
2021/05/25 15:23:44;;;;;;;47.45;45.58;;;;;;;;;;5074384;28;20200;-66
2021/05/25 15:26:11;;;;;;;51.60;49.25;;;;;;;;;;5074252;28;20251;-66
2021/05/25 15:28:37;;;;;;;56.70;54.35;;;;;;;;;;5074462;28;20176;-66
2021/05/25 15:31:03;;;;;;;50.70;48.67;;;;;;;;;;5072985;28;20264;-66
2021/05/25 15:33:29;;;;;;;48.85;46.78;;;;;;;;;;5074148;28;20165;-66
2021/05/25 15:35:56;;;;;;;45.55;43.75;;;;;;;;;;5074272;28;20168;-66
2021/05/25 15:38:22;;;;;;;42.65;40.95;;;;;;;;;;5074117;28;20187;-66
2021/05/25 15:40:49;;;;;;;39.15;37.70;;;;;;;;;;5074084;28;20164;-66
2021/05/25 15:43:15;;;;;;;39.67;38.17;;;;;;;;;;5074007;28;20169;-66
2021/05/25 15:45:43;;;;;;;38.42;37.03;;;;;;;;;;5073818;28;20200;-66
2021/05/25 15:48:11;;;;;;;37.08;35.67;;;;;;;;;;5074029;28;20169;-66
2021/05/25 15:50:37;;;;;;;41.67;40.08;;;;;;;;;;5072849;28;20533;-66
2021/05/25 15:53:05;;;;;;;43.47;41.67;;;;;;;;;;5074030;28;20171;-66
2021/05/25 15:55:32;;;;;;;42.47;40.85;;;;;;;;;;5073809;28;20179;-66
2021/05/25 15:57:58;;;;;;;42.50;40.88;;;;;;;;;;5073718;28;20699;-66
2021/05/25 16:00:25;;;;;;;45.67;43.88;;;;;;;;;;5073474;28;20282;-66
2021/05/25 16:02:51;;;;;;;42.58;40.97;;;;;;;;;;5072836;28;20628;-66
2021/05/25 16:05:18;;;;;;;40.50;39.00;;;;;;;;;;5072444;28;20557;-66
2021/05/25 16:07:44;;;;;;;42.72;41.03;;;;;;;;;;5073657;28;20551;-66
2021/05/25 16:10:11;;;;;;;42.10;40.50;;;;;;;;;;5073864;28;20160;-66
2021/05/25 16:12:37;;;;;;;43.35;41.70;;;;;;;;;;5073728;28;20199;-66
2021/05/25 16:15:03;;;;;;;43.58;41.88;;;;;;;;;;5073783;28;20188;-66
2021/05/25 16:17:30;;;;;;;41.78;40.17;;;;;;;;;;5073694;28;20175;-66
2021/05/25 16:19:59;;;;;;;43.42;41.72;;;;;;;;;;5073690;28;20169;-66
2021/05/25 16:22:25;;;;;;;43.63;41.88;;;;;;;;;;5073458;28;20191;-66
2021/05/25 16:24:51;;;;;;;44.30;42.58;;;;;;;;;;5073365;28;20171;-66
2021/05/25 16:27:18;;;;;;;43.35;41.65;;;;;;;;;;5072333;28;20179;-66
2021/05/25 16:29:45;;;;;;;45.55;43.65;;;;;;;;;;5073445;28;20255;-66
2021/05/25 16:32:11;;;;;;;47.15;44.70;;;;;;;;;;5073515;28;20217;-66
2021/05/25 16:34:38;;;;;;;43.35;41.65;;;;;;;;;;5073475;28;20160;-66
2021/05/25 16:37:04;;;;;;;41.75;40.15;;;;;;;;;;5073347;28;20198;-66
2021/05/25 16:39:30;;;;;;;41.55;39.95;;;;;;;;;;5073439;28;20255;-66
2021/05/25 16:41:56;;;;;;;39.40;37.90;;;;;;;;;;5073454;28;20172;-66
2021/05/25 16:44:22;;;;;;;38.53;37.13;;;;;;;;;;5073464;28;20168;-66
2021/05/25 16:46:48;;;;;;;35.58;34.25;;;;;;;;;;5073188;28;20203;-66
2021/05/25 16:49:15;;;;;;;33.70;32.50;;;;;;;;;;5073270;28;20200;-66
2021/05/25 16:51:41;;;;;;;33.50;32.30;;;;;;;;;;5073470;28;20164;-66
2021/05/25 16:54:07;;;;;;;32.15;31.05;;;;;;;;;;5073168;28;20169;-66
2021/05/25 16:56:34;;;;;;;32.50;31.40;;;;;;;;;;5073346;28;20206;-66
2021/05/25 16:59:02;;;;;;;32.55;31.45;;;;;;;;;;5073084;28;20168;-66
2021/05/25 17:01:35;;;;;;;35.67;34.33;;;;;;;;;;5073149;28;20164;-66
2021/05/25 17:04:16;;;;;;;30.65;29.55;;;;;;;;;;5072933;28;20709;-66
2021/05/25 17:38:26;;;;;;;28.48;27.58;;;;;;;;;;5070862;28;20951;-65
2021/05/25 17:40:52;;;;;;;27.77;26.83;;;;;;;;;;5070765;28;20165;-66
2021/05/25 17:43:18;;;;;;;26.98;26.08;;;;;;;;;;5070826;28;20179;-66
2021/05/25 17:45:44;;;;;;;26.40;25.60;;;;;;;;;;5069605;28;20552;-66
